Columbus Municipal Airport
KOLU : now visible

Airfield :











YOU CAN JOIN US ON...

 
LOGIN :

Register | Disclaimer

   EN    FR    IT 

 









Legend :    VFR   Marginal VFR   IFR   Intensive IFR   Very Intensive IFR
Visi :
Ceiling :
>= 8 km
>= 3000ft
5 to 8 km
1000 to 3000 ft
1500m to 5 km
500 to 1000 ft
800 to 1500m
200 to 500 ft
< 800m
< 200 ft
Symbols :   Thunderstorms  Fog  Heavy snow  Heavy precipitations  Wind > 20 kt






- Airport Elevation : 1447 ft


KOLU - Columbus Municipal

CURRENT METAR :
  • 021727Z AUTO 10SM SCT011 OVC031 23/21 A3005 RMK AO2 $

EXPIRED METARs :
  • 021656Z AUTO 10SM FEW009 OVC029 22/21 A3005 RMK AO2 RAE1559 SLP171 P0000 T02220211 $
  • 021638Z AUTO 10SM SCT011 BKN016 OVC029 22/21 A3005 RMK AO2 RAE1559 P0000 $
  • 021556Z AUTO 10SM -RA BKN013 OVC024 21/20 A3005 RMK AO2 RAB48 SLP171 P0000 T02110200 $
  • 021552Z AUTO 10SM -RA BKN013 OVC024 21/20 A3005 RMK AO2 RAB48 P0000 $
  • 021503Z AUTO 14004KT 10SM SCT012 OVC024 21/20 A3004 RMK AO2
  • 021456Z AUTO 12003KT 10SM BKN012 OVC024 21/20 A3005 RMK AO2 SLP169 T02060200 53000
  • 020256Z AUTO 10005KT 10SM CLR 19/18 A3005 RMK AO2 SLP169 T01940178 53002
  • 021428Z AUTO 16006KT 10SM BKN012 OVC021 21/19 A3005 RMK AO2

TAF N/A
KZMP FIR / North America



MET'MAP, your aeronautical weather chart ! - Copyright ORBIFLY December 2007 - Disclaimer

ORBIFLY MET'MAP TEAM :

Programming & Development : Alexandra Zaïnal
Original concept : Baudouin d'Aumeries
Technical & hardware support : Manuel Goepfert
Assistance : Marc-Olivier Méhu




SOURCES & CREDITS :

   NOAA       Earth
Advisory